Observations for BOURNEMOUTH AIRPORT, United Kingdom (EGHH)

EGHH 230950Z 28004KT 200V340 CAVOK 21/07 Q1029  
EGHH 230920Z VRB03KT CAVOK 20/08 Q1029  
EGHH 230850Z VRB02KT CAVOK 20/08 Q1029  
EGHH 230820Z VRB02KT CAVOK 19/09 Q1029  
EGHH 230750Z VRB02KT CAVOK 18/10 Q1029  
EGHH 230720Z VRB02KT CAVOK 17/10 Q1030  
EGHH 230650Z VRB03KT CAVOK 15/09 Q1030  
EGHH 230620Z 35004KT 320V020 CAVOK 13/09 Q1030  
EGHH 230550Z VRB02KT CAVOK 12/09 Q1029  
EGHH 230520Z 00000KT CAVOK 10/09 Q1029  
EGHH 230450Z 01003KT CAVOK 09/08 Q1029  
EGHH 222220Z 31002KT CAVOK 13/09 Q1030  
EGHH 222150Z 30002KT CAVOK 13/08 Q1030  
EGHH 222120Z 28003KT CAVOK 14/09 Q1030  
EGHH 222050Z 29003KT CAVOK 15/08 Q1030  
EGHH 222020Z 26003KT CAVOK 15/08 Q1029  
EGHH 221950Z 25004KT CAVOK 17/08 Q1029  
EGHH 221920Z 25006KT CAVOK 18/09 Q1029  
EGHH 221850Z 22007KT 180V260 CAVOK 19/09 Q1029  
EGHH 221820Z 20006KT 150V210 9999 FEW048 19/09 Q1029
EGHH 221750Z 18007KT 150V210 9999 FEW048 19/09 Q1029
EGHH 221720Z 18008KT 130V210 9999 FEW048 19/09 Q1029
EGHH 221650Z 18008KT 140V210 9999 FEW048 20/09 Q1029
EGHH 221620Z 17009KT 150V240 9999 FEW048 20/08 Q1029
EGHH 221550Z 19008KT 130V220 9999 FEW048 20/09 Q1029
EGHH 221520Z 18007KT 150V220 9999 FEW048 20/09 Q1030
EGHH 221450Z 18008KT 120V210 9999 FEW048 20/09 Q1030
EGHH 221420Z 17009KT 120V200 9999 FEW048 20/09 Q1030
EGHH 221350Z 17009KT 120V200 9999 SCT048 19/08 Q1030
EGHH 221320Z 20007KT 110V210 9999 SCT048 20/08 Q1030
EGHH 221250Z 18005KT 130V260 9999 SCT048 21/09 Q1030
EGHH 221220Z VRB04KT 9999 SCT048 21/08 Q1030
EGHH 221150Z 07007KT 310V060 9999 SCT045 22/09 Q1030
EGHH 221120Z VRB05KT 9999 BKN041 19/08 Q1031
EGHH 221050Z VRB04KT 9999 SCT040 19/08 Q1031
EGHH 221020Z 05006KT 280V040 9999 FEW038 19/09 Q1031
EGHH 220950Z 12004KT 330V130 9999 FEW034 18/09 Q1031
EGHH 220920Z 03006KT 010V080 9999 FEW032 17/08 Q1031